Airfield :
LOGIN :

Register | Disclaimer

   EN    FR    IT 

 










Legend :    VFR   Marginal VFR   IFR   Intensive IFR   Very Intensive IFR
Visi :
Ceiling :
>= 8 km
>= 3000ft
5 to 8 km
1000 to 3000 ft
1500m to 5 km
500 to 1000 ft
800 to 1500m
200 to 500 ft
< 800m
< 200 ft
Symbols :   Thunderstorms  Fog  Heavy snow  Heavy precipitations  Wind > 20 kt
SIGMETs :     Misc.  Thunderstorms  Icing  Turbulence  Mountain Waves  Volcanic Ashes







- Airport Elevation : 433 ft
- Download approach charts


LFOC - Chateaudun

EXPIRED METARs :
  • 241430Z AUTO 30011KT 260V340 CAVOK 24/11 Q1018
  • 241400Z AUTO 30011KT 270V330 CAVOK 24/11 Q1018
  • 241330Z AUTO 25010KT 220V280 CAVOK 24/10 Q1019
  • 241300Z AUTO 26012KT 230V300 CAVOK 26/12 Q1019
  • 241230Z AUTO 27011KT 240V300 9999 BKN049 OVC056 23/12 Q1019
  • 241200Z AUTO 24011KT 210V280 9999 OVC047 22/11 Q1019

Expired Forecast.
No reported NOTAMs for that airfield.



MET'MAP, your aeronautical weather chart ! - Copyright ORBIFLY December 2007 - Disclaimer

ORBIFLY MET'MAP TEAM :

Programming & Development : Alexandra Zaïnal
Concept & Development : Baudouin d'Aumeries
Co-Development & Prog : Marc-Olivier Méhu
Technical & hardware support : Manuel Goepfert

Contact : metmap@orbifly.com




SOURCES & CREDITS :

   NOAA